createdAt,value
2018-03-18T00:01:50.400Z,0.30
2018-03-18T00:04:16.758Z,0.30
2018-03-18T00:06:43.873Z,0.40
2018-03-18T00:09:10.203Z,0.40
2018-03-18T00:11:37.502Z,0.40
2018-03-18T00:14:03.963Z,0.30
2018-03-18T00:16:30.302Z,0.30
2018-03-18T00:18:56.627Z,0.30
2018-03-18T00:21:22.934Z,0.30
2018-03-18T00:23:49.233Z,0.10
2018-03-18T00:26:16.293Z,0.10
2018-03-18T00:28:43.442Z,0.10
2018-03-18T00:31:09.826Z,0.10
2018-03-18T00:33:36.159Z,0.10
2018-03-18T00:36:02.509Z,0.10
2018-03-18T00:38:28.823Z,0.10
2018-03-18T00:40:55.154Z,0.00
2018-03-18T00:43:21.587Z,0.00
2018-03-18T00:45:47.919Z,-0.10
2018-03-18T00:48:14.266Z,0.00
2018-03-18T00:50:43.087Z,0.10
2018-03-18T00:53:10.184Z,0.20
2018-03-18T00:55:36.494Z,0.10
2018-03-18T00:58:02.862Z,0.10
2018-03-18T01:00:29.203Z,0.20
2018-03-18T01:02:56.518Z,0.20
2018-03-18T01:05:23.097Z,0.10
2018-03-18T01:07:50.173Z,0.30
2018-03-18T01:10:16.528Z,0.30
2018-03-18T01:12:42.840Z,0.30
2018-03-18T01:15:10.199Z,0.30
2018-03-18T01:17:36.518Z,0.30
2018-03-18T01:20:02.862Z,0.40
2018-03-18T01:22:29.162Z,0.40
2018-03-18T01:24:56.215Z,0.40
2018-03-18T01:27:23.271Z,0.50
2018-03-18T01:29:50.330Z,0.40
2018-03-18T01:32:16.667Z,0.40
2018-03-18T01:34:42.987Z,0.30
2018-03-18T01:37:09.311Z,0.20
2018-03-18T01:39:36.398Z,0.30
2018-03-18T01:42:02.790Z,0.20
2018-03-18T01:44:29.862Z,0.20
2018-03-18T01:46:56.182Z,0.10
2018-03-18T01:49:22.557Z,0.20
2018-03-18T01:51:48.870Z,0.20
2018-03-18T01:54:15.205Z,0.10
2018-03-18T01:56:41.533Z,0.10
2018-03-18T01:59:07.875Z,0.00
2018-03-18T02:01:34.207Z,-0.10
2018-03-18T02:04:00.526Z,-0.10
2018-03-18T02:06:26.865Z,-0.20
2018-03-18T02:08:53.194Z,-0.20
2018-03-18T02:11:19.522Z,-0.20
2018-03-18T02:13:45.847Z,-0.10
2018-03-18T02:16:12.147Z,-0.10
2018-03-18T02:18:38.516Z,-0.10
2018-03-18T02:21:04.839Z,-0.10
2018-03-18T02:23:32.190Z,-0.10
2018-03-18T02:25:58.531Z,-0.10
2018-03-18T02:28:25.893Z,-0.10
2018-03-18T02:30:52.211Z,-0.20
2018-03-18T02:33:18.547Z,-0.30
2018-03-18T02:35:45.665Z,-0.30
2018-03-18T02:38:11.986Z,-0.40
2018-03-18T02:40:38.292Z,-0.40
2018-03-18T02:43:05.339Z,-0.30
2018-03-18T02:45:32.687Z,-0.30
2018-03-18T02:47:59.018Z,-0.20
2018-03-18T02:50:25.358Z,-0.20
2018-03-18T02:52:52.436Z,-0.30
2018-03-18T02:55:19.804Z,-0.30
2018-03-18T02:57:46.178Z,-0.30
2018-03-18T03:00:12.517Z,-0.40
2018-03-18T03:02:39.581Z,-0.50
2018-03-18T03:05:06.654Z,-0.60
2018-03-18T03:07:33.087Z,-0.60
2018-03-18T03:09:59.411Z,-0.70
2018-03-18T03:12:25.761Z,-0.70
2018-03-18T03:14:52.076Z,-0.70
2018-03-18T03:17:18.374Z,-0.70
2018-03-18T03:19:44.686Z,-0.70
2018-03-18T03:22:11.046Z,-0.90
2018-03-18T03:24:38.106Z,-0.80
2018-03-18T03:27:05.168Z,-0.80
2018-03-18T03:29:32.227Z,-0.80
2018-03-18T03:31:58.548Z,-0.70
2018-03-18T03:34:24.879Z,-0.80
2018-03-18T03:36:51.173Z,-0.70
2018-03-18T03:39:18.233Z,-0.80
2018-03-18T03:41:45.531Z,-0.80
2018-03-18T03:44:11.869Z,-0.80
2018-03-18T03:46:38.190Z,-0.70
2018-03-18T03:49:04.534Z,-0.80
2018-03-18T03:51:30.858Z,-0.80
2018-03-18T03:53:57.212Z,-0.90
2018-03-18T03:56:23.527Z,-0.90
2018-03-18T03:58:49.858Z,-0.90
2018-03-18T04:01:16.195Z,-1.00
2018-03-18T04:03:42.555Z,-1.00
2018-03-18T04:06:09.674Z,-1.00
2018-03-18T04:08:35.982Z,-1.10
2018-03-18T04:11:02.324Z,-0.90
2018-03-18T04:13:28.674Z,-1.00
2018-03-18T04:15:54.990Z,-1.00
2018-03-18T04:18:21.388Z,-1.00
2018-03-18T04:20:47.714Z,-1.00
2018-03-18T04:23:14.081Z,-1.00
2018-03-18T04:25:40.443Z,-1.00
2018-03-18T04:28:06.752Z,-0.80
2018-03-18T04:30:33.074Z,-0.90
2018-03-18T04:32:59.406Z,-0.80
2018-03-18T04:35:25.734Z,-0.80
2018-03-18T04:37:52.058Z,-0.70
2018-03-18T04:40:18.354Z,-0.70
2018-03-18T04:42:44.673Z,-0.70
2018-03-18T04:45:11.774Z,-0.70
2018-03-18T04:47:38.094Z,-0.80
2018-03-18T04:50:04.455Z,-0.70
2018-03-18T04:52:30.758Z,-0.80
2018-03-18T04:54:57.086Z,-0.80
2018-03-18T04:57:24.441Z,-0.90
2018-03-18T04:59:50.747Z,-0.80
2018-03-18T05:02:17.067Z,-0.90
2018-03-18T05:04:44.111Z,-1.00
2018-03-18T05:07:12.155Z,-1.10
2018-03-18T05:09:38.464Z,-1.10
2018-03-18T05:12:04.787Z,-1.20
2018-03-18T05:14:31.110Z,-1.10
2018-03-18T05:16:57.430Z,-1.10
2018-03-18T05:19:23.760Z,-1.10
2018-03-18T05:21:50.087Z,-1.00
2018-03-18T05:24:16.443Z,-1.00
2018-03-18T05:26:42.762Z,-1.10
2018-03-18T05:29:09.096Z,-1.20
2018-03-18T05:31:35.487Z,-1.20
2018-03-18T05:34:02.601Z,-1.20
2018-03-18T05:36:28.958Z,-1.30
2018-03-18T05:38:56.104Z,-1.20
2018-03-18T05:41:23.430Z,-1.20
2018-03-18T05:43:49.754Z,-1.20
2018-03-18T05:46:17.085Z,-1.20
2018-03-18T05:48:44.440Z,-1.20
2018-03-18T05:51:10.745Z,-1.30
2018-03-18T05:53:38.882Z,-1.20
2018-03-18T05:56:05.276Z,-1.20
2018-03-18T05:58:32.311Z,-1.40
2018-03-18T06:00:58.650Z,-1.40
2018-03-18T06:03:24.976Z,-1.40
2018-03-18T06:05:51.412Z,-1.40
2018-03-18T06:08:18.849Z,-1.50
2018-03-18T06:10:45.396Z,-1.60
2018-03-18T06:13:11.737Z,-1.50
2018-03-18T06:15:38.172Z,-1.50
2018-03-18T06:18:04.491Z,-1.50
2018-03-18T06:20:30.854Z,-1.40
2018-03-18T06:22:57.222Z,-1.50
2018-03-18T06:25:23.554Z,-1.50
2018-03-18T06:27:49.973Z,-1.60
2018-03-18T06:30:16.322Z,-1.60
2018-03-18T06:32:42.755Z,-1.60
2018-03-18T06:35:09.140Z,-1.60
2018-03-18T06:37:35.521Z,-1.50
2018-03-18T06:40:02.786Z,-1.40
2018-03-18T06:42:29.879Z,-1.30
2018-03-18T06:44:56.216Z,-1.40
2018-03-18T06:47:22.807Z,-1.30
2018-03-18T06:49:49.480Z,-1.30
2018-03-18T06:52:17.259Z,-1.30
2018-03-18T06:54:44.456Z,-1.30
2018-03-18T06:57:10.757Z,-1.30
2018-03-18T06:59:37.096Z,-1.30
2018-03-18T07:02:04.499Z,-1.20
2018-03-18T07:04:32.527Z,-1.10
2018-03-18T07:06:58.908Z,-1.20
2018-03-18T07:09:25.268Z,-1.10
2018-03-18T07:11:52.492Z,-1.10
2018-03-18T07:14:19.602Z,-1.00
2018-03-18T07:16:45.911Z,-1.00
2018-03-18T07:19:12.238Z,-1.00
2018-03-18T07:21:38.574Z,-0.80
2018-03-18T07:24:04.914Z,-0.80
2018-03-18T07:26:31.222Z,-0.80
2018-03-18T07:28:57.957Z,-0.80
2018-03-18T07:31:25.264Z,-0.90
2018-03-18T07:33:51.586Z,-0.90
2018-03-18T07:36:17.951Z,-0.80
2018-03-18T07:38:45.031Z,-0.60
2018-03-18T07:41:11.407Z,-0.60
2018-03-18T07:43:38.486Z,-0.40
2018-03-18T07:46:05.804Z,-0.40
2018-03-18T07:48:32.126Z,-0.30
2018-03-18T07:50:58.459Z,-0.20
2018-03-18T07:53:24.767Z,-0.10
2018-03-18T07:55:51.070Z,0.00
2018-03-18T07:58:17.407Z,0.10
2018-03-18T08:00:43.778Z,0.10
2018-03-18T08:03:10.074Z,-0.10
2018-03-18T08:05:37.411Z,-0.20
2018-03-18T08:08:03.790Z,-0.10
2018-03-18T08:10:30.127Z,-0.10
2018-03-18T08:12:56.448Z,0.10
2018-03-18T08:15:22.777Z,0.20
2018-03-18T08:17:49.107Z,0.40
2018-03-18T08:20:15.924Z,0.20
2018-03-18T08:22:42.239Z,0.30
2018-03-18T08:25:08.554Z,0.70
2018-03-18T08:27:35.651Z,0.90
2018-03-18T08:30:02.006Z,0.90
2018-03-18T08:32:28.315Z,1.10
2018-03-18T08:34:54.870Z,1.00
2018-03-18T08:37:21.185Z,1.30
2018-03-18T08:39:47.523Z,1.80
2018-03-18T08:42:26.154Z,2.10
2018-03-18T08:44:52.467Z,2.00
2018-03-18T08:47:18.782Z,1.90
2018-03-18T08:49:45.093Z,1.90
2018-03-18T08:52:12.135Z,2.30
2018-03-18T08:54:38.491Z,2.30
2018-03-18T08:57:04.809Z,2.20
2018-03-18T08:59:31.167Z,2.10
2018-03-18T09:01:57.484Z,2.20
2018-03-18T09:04:23.882Z,2.30
2018-03-18T09:06:50.947Z,2.50
2018-03-18T09:09:17.282Z,2.40
2018-03-18T09:11:43.583Z,2.70
2018-03-18T09:14:10.666Z,2.50
2018-03-18T09:16:37.020Z,2.50
2018-03-18T09:19:03.334Z,2.60
2018-03-18T09:21:29.699Z,2.60
2018-03-18T09:23:56.032Z,2.60
2018-03-18T09:26:22.368Z,2.50
2018-03-18T09:28:48.690Z,2.20
2018-03-18T09:31:15.012Z,2.00
2018-03-18T09:33:41.342Z,2.00
2018-03-18T09:36:08.703Z,1.90
2018-03-18T09:38:35.163Z,1.90
2018-03-18T09:41:01.494Z,2.00
2018-03-18T09:43:28.543Z,1.80
2018-03-18T09:45:54.878Z,1.80
2018-03-18T09:48:21.224Z,1.80
2018-03-18T09:50:49.539Z,1.80
2018-03-18T09:53:15.879Z,1.80
2018-03-18T09:55:43.440Z,1.80
2018-03-18T09:58:09.763Z,1.80
2018-03-18T10:00:37.119Z,1.70
2018-03-18T10:03:03.430Z,1.70
2018-03-18T10:05:29.752Z,1.70
2018-03-18T10:07:56.079Z,1.70
2018-03-18T10:10:23.127Z,1.80
2018-03-18T10:12:50.201Z,1.80
2018-03-18T10:15:16.539Z,1.80
2018-03-18T10:17:42.870Z,2.00
2018-03-18T10:20:09.189Z,2.20
2018-03-18T10:22:36.524Z,2.30
2018-03-18T10:25:03.610Z,2.00
2018-03-18T10:27:29.919Z,2.00
2018-03-18T10:29:56.235Z,2.10
2018-03-18T10:32:22.556Z,2.20
2018-03-18T10:34:49.675Z,2.00
2018-03-18T10:37:15.997Z,2.00
2018-03-18T10:39:42.348Z,2.20
2018-03-18T10:42:08.667Z,2.20
2018-03-18T10:44:34.989Z,2.30
2018-03-18T10:47:01.289Z,2.30
2018-03-18T10:49:27.610Z,2.20
2018-03-18T10:51:53.978Z,2.30
2018-03-18T10:54:20.282Z,2.40
2018-03-18T10:56:47.255Z,2.40
2018-03-18T10:59:14.624Z,2.50
2018-03-18T11:01:48.549Z,2.50
2018-03-18T11:04:16.563Z,2.90
2018-03-18T11:06:42.946Z,2.80
2018-03-18T11:09:09.262Z,2.90
2018-03-18T11:11:37.092Z,3.10
2018-03-18T11:14:03.467Z,3.10
2018-03-18T11:16:29.786Z,3.30
2018-03-18T11:18:56.110Z,3.50
2018-03-18T11:21:22.470Z,3.30
2018-03-18T11:23:49.935Z,3.30
2018-03-18T11:26:17.042Z,2.90
2018-03-18T11:28:43.359Z,2.90
2018-03-18T11:31:09.670Z,3.00
2018-03-18T11:33:36.015Z,3.00
2018-03-18T11:36:02.355Z,2.90
2018-03-18T11:38:28.738Z,2.90
2018-03-18T11:40:55.790Z,3.00
2018-03-18T11:43:22.846Z,3.20
2018-03-18T11:45:50.924Z,3.30
2018-03-18T11:48:17.244Z,3.30
2018-03-18T11:50:45.971Z,3.50
2018-03-18T11:53:12.301Z,3.40
2018-03-18T11:55:38.611Z,3.70
2018-03-18T11:58:04.947Z,3.80
2018-03-18T12:00:31.262Z,3.70
2018-03-18T12:02:57.566Z,3.70
2018-03-18T12:05:23.940Z,3.50
2018-03-18T12:07:50.256Z,3.30
2018-03-18T12:10:16.565Z,3.30
2018-03-18T12:12:43.614Z,2.90
2018-03-18T12:15:11.167Z,2.90
2018-03-18T12:17:38.227Z,2.90
2018-03-18T12:20:05.332Z,3.00
2018-03-18T12:22:31.676Z,2.90
2018-03-18T12:24:57.986Z,2.70
2018-03-18T12:27:24.295Z,2.70
2018-03-18T12:29:51.890Z,2.90
2018-03-18T12:32:18.252Z,3.00
2018-03-18T12:34:45.446Z,2.80
2018-03-18T12:37:11.759Z,2.70
2018-03-18T12:39:50.287Z,2.60
2018-03-18T12:42:29.012Z,2.30
2018-03-18T12:44:55.318Z,2.30
2018-03-18T12:47:21.645Z,2.50
2018-03-18T12:49:48.723Z,2.30
2018-03-18T12:52:15.035Z,2.20
2018-03-18T12:54:41.402Z,2.30
2018-03-18T12:57:07.731Z,2.20
2018-03-18T12:59:34.049Z,2.40
2018-03-18T13:02:00.383Z,2.40
2018-03-18T13:04:26.716Z,2.40
2018-03-18T13:06:53.114Z,2.60
2018-03-18T13:09:19.423Z,2.60
2018-03-18T13:11:47.474Z,2.50
2018-03-18T13:14:15.275Z,2.20
2018-03-18T13:16:42.351Z,2.20
2018-03-18T13:19:08.697Z,2.20
2018-03-18T13:21:35.991Z,2.20
2018-03-18T13:24:03.799Z,2.30
2018-03-18T13:26:30.106Z,2.30
2018-03-18T13:28:56.422Z,2.20
2018-03-18T13:31:23.475Z,2.20
2018-03-18T13:33:50.538Z,2.10
2018-03-18T13:36:16.855Z,2.10
2018-03-18T13:38:43.918Z,2.10
2018-03-18T13:41:10.286Z,2.00
2018-03-18T13:43:36.721Z,2.10
2018-03-18T13:46:03.056Z,2.20
2018-03-18T13:48:29.390Z,2.00
2018-03-18T13:50:55.715Z,1.70
2018-03-18T13:53:22.775Z,1.70
2018-03-18T13:55:49.153Z,1.80
2018-03-18T13:58:16.525Z,1.90
2018-03-18T14:00:42.853Z,1.90
2018-03-18T14:03:09.178Z,1.80
2018-03-18T14:05:35.515Z,1.70
2018-03-18T14:08:01.876Z,1.70
2018-03-18T14:10:28.186Z,1.70
2018-03-18T14:12:55.528Z,1.60
2018-03-18T14:15:21.839Z,1.60
2018-03-18T14:17:48.927Z,1.50
2018-03-18T14:20:15.266Z,1.50
2018-03-18T14:22:41.615Z,1.50
2018-03-18T14:25:07.942Z,1.50
2018-03-18T14:27:34.271Z,1.40
2018-03-18T14:30:01.693Z,1.30
2018-03-18T14:32:29.026Z,1.30
2018-03-18T14:34:56.328Z,1.40
2018-03-18T14:37:22.667Z,1.40
2018-03-18T14:39:48.997Z,1.30
2018-03-18T14:42:15.319Z,1.30
2018-03-18T14:44:41.630Z,1.30
2018-03-18T14:47:07.966Z,1.30
2018-03-18T14:49:34.285Z,1.20
2018-03-18T14:52:00.599Z,1.10
2018-03-18T14:54:28.648Z,1.10
2018-03-18T14:56:56.042Z,1.10
2018-03-18T14:59:23.098Z,1.10
2018-03-18T15:01:50.176Z,1.00
2018-03-18T15:04:17.502Z,1.00
2018-03-18T15:06:44.570Z,0.90
2018-03-18T15:09:10.899Z,0.80
2018-03-18T15:11:37.211Z,0.80
2018-03-18T15:14:04.943Z,0.80
2018-03-18T15:16:31.269Z,0.80
2018-03-18T15:18:57.602Z,0.90
2018-03-18T15:21:23.939Z,0.80
2018-03-18T15:23:50.244Z,0.80
2018-03-18T15:26:16.566Z,0.70
2018-03-18T15:28:43.923Z,0.60
2018-03-18T15:31:11.283Z,0.30
2018-03-18T15:33:37.603Z,0.20
2018-03-18T15:36:03.934Z,0.20
2018-03-18T15:38:30.292Z,0.20
2018-03-18T15:40:58.106Z,0.20
2018-03-18T15:43:24.470Z,0.10
2018-03-18T15:45:50.768Z,0.10
2018-03-18T15:48:17.084Z,0.10
2018-03-18T15:50:44.141Z,0.20
2018-03-18T15:53:10.476Z,0.20
2018-03-18T15:55:36.834Z,0.20
2018-03-18T15:58:03.174Z,0.30
2018-03-18T16:00:29.596Z,0.40
2018-03-18T16:02:55.855Z,0.20
2018-03-18T16:05:22.195Z,0.10
2018-03-18T16:07:48.527Z,-0.10
2018-03-18T16:10:14.879Z,-0.20
2018-03-18T16:12:41.194Z,-0.10
2018-03-18T16:15:08.263Z,-0.10
2018-03-18T16:17:35.326Z,-0.30
2018-03-18T16:20:02.851Z,-0.30
2018-03-18T16:22:33.560Z,-0.30
2018-03-18T16:25:00.651Z,-0.30
2018-03-18T16:27:26.975Z,-0.40
2018-03-18T16:30:06.571Z,-0.40
2018-03-18T16:32:33.030Z,-0.40
2018-03-18T16:35:00.084Z,-0.70
2018-03-18T16:37:28.173Z,-0.70
2018-03-18T16:39:54.518Z,-0.70
2018-03-18T16:42:20.842Z,-0.80
2018-03-18T16:44:47.188Z,-0.80
2018-03-18T16:47:13.498Z,-0.70
